Time;durP1;ratioP1;P1;durP2;ratioP2;P2;SDS_P1;SDS_P2;PMS_P1;PMS_P2;Temp;Humidity;BMP_temperature;BMP_pressure;BME280_temperature;BME280_humidity;BME280_pressure;Samples;Min_cycle;Max_cycle;Signal;HPM_P1;HPM_P2
2023/03/05 00:01:46;;;;;;;18.40;4.20;;;;;;;3.71;88.59;102142.44;5030017;28;20033;-58
2023/03/05 00:04:14;;;;;;;13.43;3.95;;;;;;;3.71;89.26;102142.44;5036310;28;20101;-58
2023/03/05 00:06:39;;;;;;;15.52;4.13;;;;;;;3.68;89.36;102137.34;5033472;28;20057;-59
2023/03/05 00:09:04;;;;;;;18.25;3.83;;;;;;;3.67;89.74;102130.41;5025512;28;20068;-60
2023/03/05 00:11:32;;;;;;;14.73;3.80;;;;;;;3.67;89.57;102140.91;5026621;28;20053;-58
2023/03/05 00:13:58;;;;;;;15.70;3.75;;;;;;;3.66;89.94;102139.22;5029015;28;20030;-58
2023/03/05 00:16:25;;;;;;;13.02;3.40;;;;;;;3.62;89.77;102134.13;5019484;28;20090;-58
2023/03/05 00:18:51;;;;;;;14.27;3.70;;;;;;;3.60;90.32;102143.03;5031693;28;20048;-57
2023/03/05 00:21:23;;;;;;;13.67;3.80;;;;;;;3.61;90.48;102142.09;5028033;28;20051;-59
2023/03/05 00:23:52;;;;;;;12.70;3.53;;;;;;;3.62;90.01;102139.38;5027480;28;20168;-58
2023/03/05 00:26:18;;;;;;;13.75;3.55;;;;;;;3.56;90.58;102134.44;5035719;28;20040;-58
2023/03/05 00:28:46;;;;;;;11.88;3.42;;;;;;;3.53;90.53;102128.53;5021351;28;20053;-58
2023/03/05 00:31:11;;;;;;;16.65;3.78;;;;;;;3.54;91.08;102128.47;5021687;28;20029;-58
2023/03/05 00:33:36;;;;;;;15.65;3.70;;;;;;;3.54;91.29;102131.09;5044856;28;20086;-58
2023/03/05 00:36:05;;;;;;;17.23;3.47;;;;;;;3.57;90.68;102125.69;5025202;28;21156;-58
2023/03/05 00:38:30;;;;;;;15.93;3.50;;;;;;;3.54;90.89;102119.75;5028712;28;20018;-58
2023/03/05 00:40:55;;;;;;;15.50;3.83;;;;;;;3.56;90.48;102118.72;5031276;28;20714;-58
2023/03/05 00:43:20;;;;;;;14.23;3.88;;;;;;;3.53;90.90;102116.28;5032282;28;20028;-58
2023/03/05 00:45:45;;;;;;;13.20;3.65;;;;;;;3.54;91.04;102110.09;5033992;28;20025;-59
2023/03/05 00:48:11;;;;;;;11.85;3.65;;;;;;;3.54;90.79;102109.28;5035537;28;20114;-58
2023/03/05 00:50:36;;;;;;;15.10;3.67;;;;;;;3.54;90.58;102107.47;5023567;28;20040;-58
2023/03/05 00:53:01;;;;;;;16.85;3.75;;;;;;;3.52;91.04;102104.09;5031184;28;20037;-59
2023/03/05 00:55:27;;;;;;;15.13;3.50;;;;;;;3.50;90.56;102101.56;5024714;28;20073;-58
2023/03/05 00:57:52;;;;;;;14.90;3.35;;;;;;;3.49;91.07;102101.63;5028841;28;20092;-59
2023/03/05 01:00:17;;;;;;;14.67;3.37;;;;;;;3.48;92.08;102103.44;5027412;28;20384;-58
2023/03/05 01:02:43;;;;;;;17.27;3.63;;;;;;;3.50;91.47;102093.69;5021996;28;20034;-60
2023/03/05 01:05:13;;;;;;;13.77;3.60;;;;;;;3.50;91.37;102095.44;5033365;28;20127;-58
2023/03/05 01:07:39;;;;;;;16.58;3.53;;;;;;;3.45;91.31;102094.88;5032349;28;20034;-58
2023/03/05 01:10:05;;;;;;;17.80;3.97;;;;;;;3.45;92.09;102094.88;5029368;28;20030;-58
2023/03/05 01:12:30;;;;;;;15.57;3.63;;;;;;;3.48;92.05;102094.69;5025537;28;20033;-58
2023/03/05 01:14:55;;;;;;;15.98;3.22;;;;;;;3.45;92.26;102089.63;5030357;28;20448;-59
2023/03/05 01:17:20;;;;;;;16.40;3.88;;;;;;;3.47;92.32;102083.34;5035547;28;20110;-58
2023/03/05 01:19:46;;;;;;;12.90;3.30;;;;;;;3.44;92.52;102078.28;5032357;28;20045;-58
2023/03/05 01:22:11;;;;;;;16.40;3.90;;;;;;;3.43;92.32;102076.59;5032524;28;20109;-58
2023/03/05 01:24:36;;;;;;;15.20;3.60;;;;;;;3.43;92.68;102076.59;5037192;28;21856;-58
2023/03/05 01:27:01;;;;;;;13.43;3.80;;;;;;;3.42;92.35;102069.66;5042194;28;20025;-58
2023/03/05 01:29:27;;;;;;;14.90;3.60;;;;;;;3.50;91.84;102072.69;5028019;28;20466;-58
2023/03/05 01:31:52;;;;;;;13.40;3.77;;;;;;;3.57;90.97;102067.97;5032650;28;20096;-58
2023/03/05 01:34:17;;;;;;;18.97;3.80;;;;;;;3.46;92.30;102065.09;5030993;28;20037;-58
2023/03/05 01:36:43;;;;;;;13.83;3.53;;;;;;;3.40;92.74;102065.44;5033505;28;20088;-59
2023/03/05 01:39:08;;;;;;;18.80;4.13;;;;;;;3.39;92.25;102059.31;5024535;28;20034;-59
2023/03/05 01:41:34;;;;;;;14.50;4.07;;;;;;;3.35;92.79;102052.56;5029876;28;20033;-58
2023/03/05 01:44:00;;;;;;;15.73;3.40;;;;;;;3.29;93.20;102053.75;5043863;28;20040;-58
2023/03/05 01:46:35;;;;;;;14.67;3.63;;;;;;;3.29;93.34;102051.13;5033536;28;20029;-58
2023/03/05 01:49:28;;;;;;;14.03;3.50;;;;;;;3.30;93.84;102044.94;5027946;28;20068;-58
2023/03/05 01:52:17;;;;;;;14.07;3.42;;;;;;;3.27;93.97;102032.03;5034832;28;20112;-58
2023/03/05 01:54:49;;;;;;;14.40;3.37;;;;;;;3.24;94.54;102029.56;5039508;28;20047;-58
2023/03/05 01:57:20;;;;;;;14.23;3.47;;;;;;;3.22;94.63;102031.41;5029685;28;20100;-58
2023/03/05 01:59:49;;;;;;;12.83;3.27;;;;;;;3.18;94.94;102025.50;5022406;28;20043;-60
2023/03/05 02:02:15;;;;;;;13.07;3.57;;;;;;;3.17;95.32;102022.97;5025910;28;20029;-58
2023/03/05 02:04:49;;;;;;;14.13;3.43;;;;;;;3.17;95.34;102015.09;5032741;28;20067;-58
2023/03/05 02:07:16;;;;;;;12.83;3.40;;;;;;;3.15;95.16;102006.47;5035018;28;20049;-59
2023/03/05 02:09:42;;;;;;;14.40;3.23;;;;;;;3.16;94.80;102006.38;5036224;28;20039;-60
2023/03/05 02:12:10;;;;;;;15.17;3.70;;;;;;;3.17;94.89;102002.00;5025179;28;20033;-58
2023/03/05 02:14:35;;;;;;;13.90;3.30;;;;;;;3.17;94.97;102002.00;5023524;28;21263;-57
2023/03/05 02:17:01;;;;;;;9.00;3.20;;;;;;;3.15;95.62;101996.81;5027816;28;20108;-58
2023/03/05 02:19:27;;;;;;;14.37;3.10;;;;;;;3.17;95.24;101996.75;5031518;28;20045;-59
2023/03/05 02:21:52;;;;;;;13.60;3.60;;;;;;;3.15;95.92;101990.75;5023934;28;20034;-58
2023/03/05 02:24:34;;;;;;;12.57;3.43;;;;;;;3.15;95.96;101990.75;5032966;28;20037;-58
2023/03/05 02:27:01;;;;;;;13.97;3.13;;;;;;;3.16;95.89;101985.41;5028034;28;20037;-58
2023/03/05 02:29:29;;;;;;;11.40;3.37;;;;;;;3.11;95.66;101976.13;5024226;28;20392;-57
2023/03/05 02:31:54;;;;;;;15.20;3.53;;;;;;;3.15;96.58;101982.88;5031194;28;20497;-58
2023/03/05 02:34:20;;;;;;;15.17;3.77;;;;;;;3.13;96.70;101989.97;5033139;28;20021;-59
2023/03/05 02:36:46;;;;;;;10.90;3.13;;;;;;;3.13;96.56;101987.34;5033228;28;20112;-58
2023/03/05 02:39:11;;;;;;;14.90;3.20;;;;;;;3.08;97.01;101983.22;5033902;28;20109;-58
2023/03/05 02:41:37;;;;;;;11.80;3.40;;;;;;;3.08;97.40;101977.13;5021457;28;20092;-58
2023/03/05 02:44:02;;;;;;;12.03;3.10;;;;;;;3.07;97.36;101976.25;5042487;28;20557;-60
2023/03/05 02:46:27;;;;;;;16.60;3.50;;;;;;;3.05;97.06;101974.66;5023627;28;20026;-58
2023/03/05 02:48:53;;;;;;;12.50;3.40;;;;;;;3.04;96.89;101965.97;5026721;28;20481;-59
2023/03/05 02:51:18;;;;;;;15.83;3.30;;;;;;;3.04;97.17;101960.72;5031350;28;20033;-59
2023/03/05 02:53:43;;;;;;;9.53;3.00;;;;;;;3.05;97.16;101965.03;5037657;28;20458;-58
2023/03/05 02:56:09;;;;;;;15.00;3.80;;;;;;;3.07;97.05;101950.06;5018030;28;20088;-58
2023/03/05 02:58:34;;;;;;;13.23;3.53;;;;;;;3.08;96.64;101951.78;5027882;28;20116;-58
2023/03/05 03:01:00;;;;;;;12.20;3.30;;;;;;;3.09;96.40;101953.47;5027649;28;20053;-59
2023/03/05 03:03:25;;;;;;;12.37;3.50;;;;;;;3.12;96.44;101947.19;5029952;28;20112;-60
2023/03/05 03:05:50;;;;;;;11.10;3.33;;;;;;;3.12;96.77;101943.72;5020956;28;20383;-58
2023/03/05 03:08:16;;;;;;;15.93;3.93;;;;;;;3.12;96.32;101941.97;5033472;28;20531;-58
2023/03/05 03:10:41;;;;;;;12.23;3.47;;;;;;;3.14;96.75;101934.00;5026571;28;20100;-59
2023/03/05 03:13:06;;;;;;;11.50;3.47;;;;;;;3.17;96.47;101939.06;5025834;28;20037;-58
2023/03/05 03:15:32;;;;;;;12.70;3.87;;;;;;;3.14;96.66;101940.09;5031376;28;20041;-57
2023/03/05 03:17:57;;;;;;;13.70;3.50;;;;;;;3.13;97.32;101927.06;5035667;28;20043;-58
2023/03/05 03:20:23;;;;;;;14.55;3.67;;;;;;;3.11;96.79;101928.94;5029758;28;20417;-58
2023/03/05 03:22:48;;;;;;;15.37;3.93;;;;;;;3.06;97.58;101927.41;5032938;28;20035;-58
2023/03/05 03:25:20;;;;;;;15.90;3.87;;;;;;;3.02;97.32;101920.66;5031267;28;20528;-58
2023/03/05 03:27:45;;;;;;;13.47;3.90;;;;;;;3.02;97.36;101923.28;5031908;28;20025;-58
2023/03/05 03:30:12;;;;;;;14.60;4.07;;;;;;;3.01;96.78;101913.72;5026875;28;20040;-60
2023/03/05 03:32:38;;;;;;;17.27;4.30;;;;;;;3.02;96.63;101912.81;5021878;28;20033;-59
2023/03/05 03:35:03;;;;;;;14.97;4.40;;;;;;;3.03;96.39;101903.16;5020632;28;20095;-59
2023/03/05 03:37:29;;;;;;;13.67;4.30;;;;;;;3.04;96.17;101903.06;5023904;28;20030;-60
2023/03/05 03:39:55;;;;;;;17.97;4.47;;;;;;;3.02;96.40;101901.47;5029482;28;20100;-58
2023/03/05 03:42:21;;;;;;;15.10;4.20;;;;;;;3.00;96.59;101901.53;5033189;28;20532;-60
2023/03/05 03:44:46;;;;;;;18.13;4.37;;;;;;;2.98;96.49;101895.56;5030726;28;20036;-58
2023/03/05 03:47:12;;;;;;;14.40;4.13;;;;;;;2.98;96.47;101886.84;5028234;28;20068;-59
2023/03/05 03:49:37;;;;;;;14.87;4.60;;;;;;;2.99;96.27;101886.75;5032258;28;20041;-59
2023/03/05 03:52:05;;;;;;;15.53;4.33;;;;;;;2.98;96.19;101887.69;5027833;28;20051;-59
2023/03/05 03:54:30;;;;;;;14.87;4.70;;;;;;;2.96;96.82;101894.78;5016968;28;20034;-58
2023/03/05 03:56:55;;;;;;;16.10;4.53;;;;;;;2.94;97.12;101886.16;5031524;28;20042;-58
2023/03/05 03:59:21;;;;;;;13.13;4.47;;;;;;;2.92;96.68;101888.03;5025902;28;20033;-59
2023/03/05 04:01:46;;;;;;;14.90;4.70;;;;;;;2.87;97.54;101885.69;5025756;28;20029;-58
2023/03/05 04:04:12;;;;;;;14.30;4.90;;;;;;;2.78;97.51;101876.53;5025886;28;20029;-59
2023/03/05 04:06:38;;;;;;;14.07;5.30;;;;;;;2.80;97.72;101874.69;5024656;28;20473;-59
2023/03/05 04:09:04;;;;;;;20.43;5.97;;;;;;;2.80;97.16;101879.91;5031098;28;20059;-58
2023/03/05 04:11:29;;;;;;;19.57;6.07;;;;;;;2.82;97.12;101882.47;5028104;28;20061;-58
2023/03/05 04:13:54;;;;;;;16.13;5.80;;;;;;;2.76;97.61;101877.56;5020792;28;20086;-59
2023/03/05 04:16:20;;;;;;;18.53;6.30;;;;;;;2.74;97.64;101869.78;5034632;28;20457;-58
2023/03/05 04:18:46;;;;;;;21.00;6.70;;;;;;;2.70;98.40;101868.25;5023659;28;20032;-58
2023/03/05 04:21:11;;;;;;;19.30;6.43;;;;;;;2.68;98.31;101864.88;5035582;28;20060;-58
2023/03/05 04:23:37;;;;;;;19.83;6.70;;;;;;;2.69;98.27;101861.31;5020014;28;20028;-58
2023/03/05 04:26:03;;;;;;;22.30;6.43;;;;;;;2.68;99.07;101860.47;5027537;28;20030;-59
2023/03/05 04:28:28;;;;;;;17.30;6.40;;;;;;;2.68;98.31;101850.00;5029442;28;20037;-59
2023/03/05 04:30:53;;;;;;;17.07;6.13;;;;;;;2.71;98.30;101856.00;5024494;28;20033;-58
2023/03/05 04:33:19;;;;;;;19.93;6.60;;;;;;;2.71;98.48;101848.97;5029354;28;20040;-59
2023/03/05 04:35:44;;;;;;;20.97;7.17;;;;;;;2.68;98.39;101850.00;5036696;28;20469;-58
2023/03/05 04:38:09;;;;;;;20.33;7.13;;;;;;;2.66;98.94;101845.78;5036427;28;20029;-58
2023/03/05 04:40:35;;;;;;;17.97;7.13;;;;;;;2.65;98.62;101849.31;5024195;28;20030;-58
2023/03/05 04:43:00;;;;;;;17.37;7.00;;;;;;;2.62;99.01;101839.84;5024310;28;20029;-58
2023/03/05 04:45:25;;;;;;;19.43;7.30;;;;;;;2.64;99.13;101843.25;5033882;28;20033;-60
2023/03/05 04:47:51;;;;;;;19.93;7.40;;;;;;;2.65;98.60;101847.56;5033157;28;20073;-58
2023/03/05 04:50:16;;;;;;;19.07;6.93;;;;;;;2.67;99.10;101842.25;5025924;28;20087;-58
2023/03/05 04:52:43;;;;;;;17.10;7.50;;;;;;;2.67;98.79;101842.25;5030866;28;20457;-59
2023/03/05 04:55:10;;;;;;;20.70;7.43;;;;;;;2.72;98.39;101840.22;5041837;28;20029;-58
2023/03/05 04:57:35;;;;;;;22.07;7.37;;;;;;;2.68;98.98;101838.69;5022198;28;20118;-58
2023/03/05 05:00:04;;;;;;;19.33;7.20;;;;;;;2.64;98.96;101831.91;5026554;28;20153;-58
2023/03/05 05:02:29;;;;;;;20.27;7.97;;;;;;;2.67;99.19;101834.38;5028250;28;20078;-59
2023/03/05 05:04:54;;;;;;;18.80;7.50;;;;;;;2.66;98.86;101830.09;5030860;28;20040;-58
2023/03/05 05:07:20;;;;;;;18.27;7.67;;;;;;;2.66;99.13;101824.84;5027455;28;20092;-58
2023/03/05 05:09:45;;;;;;;22.47;7.83;;;;;;;2.67;99.49;101826.53;5027198;28;20026;-58
2023/03/05 05:12:11;;;;;;;17.97;7.40;;;;;;;2.68;98.50;101822.97;5019641;28;20486;-59
2023/03/05 05:14:37;;;;;;;19.43;7.37;;;;;;;2.69;98.93;101819.41;5022734;28;20524;-59
2023/03/05 05:17:05;;;;;;;18.33;7.53;;;;;;;2.66;98.31;101817.81;5019457;28;20021;-58
2023/03/05 05:19:34;;;;;;;19.03;7.77;;;;;;;2.69;98.92;101822.91;5023271;28;20046;-59
2023/03/05 05:22:00;;;;;;;17.83;7.80;;;;;;;2.68;99.12;101817.72;5021706;28;20473;-58
2023/03/05 05:24:25;;;;;;;20.33;7.70;;;;;;;2.65;99.31;101817.88;5028499;28;20036;-58
2023/03/05 05:26:54;;;;;;;22.40;8.20;;;;;;;2.65;100.00;101810.88;5028879;28;20037;-59
2023/03/05 05:29:19;;;;;;;19.47;8.50;;;;;;;2.64;99.78;101806.59;5033458;28;20047;-57
2023/03/05 05:31:45;;;;;;;20.30;8.53;;;;;;;2.67;99.98;101810.81;5024638;28;20115;-57
2023/03/05 05:34:10;;;;;;;19.10;8.27;;;;;;;2.67;99.94;101810.81;5031673;28;20035;-57
2023/03/05 05:36:35;;;;;;;18.37;8.30;;;;;;;2.62;100.00;101797.94;5044724;28;20060;-57
2023/03/05 05:39:00;;;;;;;20.13;9.00;;;;;;;2.69;100.00;101814.19;5032777;28;20090;-58
2023/03/05 05:41:26;;;;;;;23.93;9.13;;;;;;;2.69;100.00;101814.19;5041551;28;20044;-57
2023/03/05 05:43:51;;;;;;;20.03;8.90;;;;;;;2.68;100.00;101802.84;5041988;28;20412;-57
2023/03/05 05:46:19;;;;;;;20.90;8.90;;;;;;;2.71;100.00;101807.06;5036224;28;20033;-57
2023/03/05 05:48:44;;;;;;;17.93;8.67;;;;;;;2.69;100.00;101803.69;5026287;28;20064;-58
2023/03/05 05:51:13;;;;;;;18.43;8.87;;;;;;;2.66;100.00;101806.50;5033424;28;20025;-57
2023/03/05 05:53:39;;;;;;;18.30;9.03;;;;;;;2.64;100.00;101796.13;5029953;28;20030;-57
2023/03/05 05:56:06;;;;;;;18.70;8.80;;;;;;;2.65;100.00;101796.94;5039023;28;20025;-58
2023/03/05 05:58:31;;;;;;;18.60;9.10;;;;;;;2.64;100.00;101795.25;5034321;28;20025;-57
2023/03/05 06:00:57;;;;;;;24.00;9.13;;;;;;;2.63;100.00;101777.84;5037346;28;20108;-57
2023/03/05 06:03:22;;;;;;;18.27;8.37;;;;;;;2.66;100.00;101790.78;5028676;28;20428;-58
2023/03/05 06:05:47;;;;;;;17.87;8.73;;;;;;;2.67;100.00;101782.00;5026800;28;20049;-58
2023/03/05 06:08:13;;;;;;;18.23;8.20;;;;;;;2.67;100.00;101780.22;5024565;28;20385;-57
2023/03/05 06:10:38;;;;;;;19.53;8.70;;;;;;;2.66;100.00;101777.69;5028102;28;20029;-57
2023/03/05 06:13:03;;;;;;;21.07;8.60;;;;;;;2.65;100.00;101765.50;5025818;28;20484;-58
2023/03/05 06:15:29;;;;;;;15.90;8.57;;;;;;;2.63;100.00;101775.25;5020268;28;20053;-57
2023/03/05 06:17:55;;;;;;;20.87;8.70;;;;;;;2.63;100.00;101767.38;5028936;28;20112;-59
2023/03/05 06:20:20;;;;;;;19.03;8.17;;;;;;;2.65;100.00;101768.13;5018007;28;20052;-58
2023/03/05 06:22:45;;;;;;;18.30;8.10;;;;;;;2.63;100.00;101768.25;5022849;28;20017;-58
2023/03/05 06:25:11;;;;;;;20.03;8.87;;;;;;;2.61;100.00;101767.47;5023410;28;20085;-58
2023/03/05 06:27:37;;;;;;;19.43;8.40;;;;;;;2.64;100.00;101772.53;5018389;28;20409;-59
2023/03/05 06:30:05;;;;;;;18.40;8.63;;;;;;;2.65;100.00;101766.38;5021069;28;20029;-57
2023/03/05 06:32:30;;;;;;;21.07;8.50;;;;;;;2.67;100.00;101774.97;5019628;28;20025;-59
2023/03/05 06:34:55;;;;;;;16.10;8.33;;;;;;;2.65;100.00;101771.59;5018951;28;20555;-57
2023/03/05 06:37:20;;;;;;;19.77;8.40;;;;;;;2.64;100.00;101771.69;5024848;28;20474;-58
2023/03/05 06:39:46;;;;;;;17.40;8.80;;;;;;;2.64;100.00;101780.41;5020574;28;20037;-58
2023/03/05 06:42:11;;;;;;;15.67;8.50;;;;;;;2.62;100.00;101776.16;5026966;28;20041;-57
2023/03/05 06:44:40;;;;;;;17.10;8.60;;;;;;;2.61;100.00;101774.50;5025590;28;20041;-57
2023/03/05 06:47:07;;;;;;;15.80;8.30;;;;;;;2.61;100.00;101770.06;5025167;28;20041;-60
2023/03/05 06:49:32;;;;;;;17.87;7.83;;;;;;;2.63;100.00;101770.00;5036328;28;20112;-62
2023/03/05 06:51:57;;;;;;;15.87;7.73;;;;;;;2.65;100.00;101771.59;5030478;28;20434;-57
2023/03/05 06:54:23;;;;;;;18.23;7.93;;;;;;;2.67;100.00;101774.16;5028983;28;20115;-58
2023/03/05 06:56:48;;;;;;;15.13;7.47;;;;;;;2.65;100.00;101773.38;5026109;28;20108;-58
2023/03/05 06:59:15;;;;;;;18.23;7.90;;;;;;;2.65;100.00;101770.75;5018586;28;20032;-60
2023/03/05 07:01:42;;;;;;;15.40;7.43;;;;;;;2.66;100.00;101772.47;5027329;28;20064;-57
2023/03/05 07:04:07;;;;;;;16.93;7.73;;;;;;;2.64;100.00;101776.91;5021680;28;20036;-57
2023/03/05 07:06:35;;;;;;;16.43;7.43;;;;;;;2.63;100.00;101777.84;5019541;28;20116;-58
2023/03/05 07:09:01;;;;;;;14.03;7.67;;;;;;;2.66;100.00;101782.94;5022567;28;20030;-58
2023/03/05 07:11:27;;;;;;;18.93;7.97;;;;;;;2.65;100.00;101778.59;5019518;28;20033;-58
2023/03/05 07:13:52;;;;;;;15.07;7.43;;;;;;;2.67;100.00;101768.91;5018905;28;20048;-58
2023/03/05 07:16:30;;;;;;;14.40;7.33;;;;;;;2.68;100.00;101771.41;5017035;28;20029;-60
2023/03/05 07:18:57;;;;;;;14.20;7.47;;;;;;;2.69;100.00;101772.28;5019397;28;20037;-58
2023/03/05 07:21:25;;;;;;;13.33;7.40;;;;;;;2.67;100.00;101761.06;5018913;28;20040;-58
2023/03/05 07:23:56;;;;;;;14.17;7.10;;;;;;;2.77;100.00;101763.97;5018764;28;20038;-59
2023/03/05 07:26:22;;;;;;;15.37;7.50;;;;;;;2.83;100.00;101764.47;5018375;28;20030;-58
2023/03/05 07:28:47;;;;;;;15.20;7.27;;;;;;;2.86;100.00;101760.00;5017581;28;20083;-57
2023/03/05 07:31:15;;;;;;;13.40;6.70;;;;;;;2.86;100.00;101760.00;5018815;28;20038;-58
2023/03/05 07:33:41;;;;;;;12.93;6.33;;;;;;;2.98;100.00;101751.44;5025820;28;20909;-59
2023/03/05 07:36:08;;;;;;;13.50;5.87;;;;;;;2.96;100.00;101758.50;5020661;28;20112;-57
2023/03/05 07:38:33;;;;;;;11.27;5.80;;;;;;;3.03;100.00;101754.63;5018717;28;20101;-58
2023/03/05 07:41:04;;;;;;;11.93;5.20;;;;;;;3.18;100.00;101754.66;5027506;28;20411;-58
2023/03/05 07:43:29;;;;;;;16.30;5.93;;;;;;;3.08;100.00;101760.44;5021725;28;20091;-58
2023/03/05 07:45:54;;;;;;;11.13;5.50;;;;;;;3.05;100.00;101755.38;5021105;28;20083;-58
2023/03/05 07:48:20;;;;;;;11.20;5.70;;;;;;;3.04;100.00;101756.31;5020654;28;20437;-58
2023/03/05 07:50:46;;;;;;;10.73;5.40;;;;;;;3.11;100.00;101761.19;5018241;28;20029;-58
2023/03/05 07:53:12;;;;;;;11.73;4.93;;;;;;;3.06;100.00;101757.06;5019040;28;20041;-57
2023/03/05 07:55:44;;;;;;;10.17;4.97;;;;;;;3.09;100.00;101759.50;5016648;28;20068;-58
2023/03/05 07:58:10;;;;;;;12.20;5.00;;;;;;;3.21;100.00;101757.09;5019917;28;20025;-59
2023/03/05 08:00:35;;;;;;;10.10;4.73;;;;;;;3.14;100.00;101753.13;5016360;28;20121;-58
2023/03/05 08:03:01;;;;;;;9.47;4.60;;;;;;;3.21;100.00;101754.50;5032175;28;20495;-58
2023/03/05 08:05:26;;;;;;;9.40;4.60;;;;;;;3.16;100.00;101749.50;5022236;28;20100;-58
2023/03/05 08:07:51;;;;;;;10.70;4.67;;;;;;;3.24;100.00;101751.66;5019702;28;20034;-58
2023/03/05 08:10:16;;;;;;;13.67;4.90;;;;;;;3.27;100.00;101741.00;5015992;28;20893;-58
2023/03/05 08:12:42;;;;;;;12.33;5.30;;;;;;;3.32;100.00;101749.47;5016462;28;20037;-58
2023/03/05 08:15:08;;;;;;;13.23;5.60;;;;;;;3.38;100.00;101744.75;5015837;28;20038;-58
2023/03/05 08:17:33;;;;;;;10.33;4.50;;;;;;;3.45;100.00;101752.16;5015812;28;20370;-58
2023/03/05 08:19:59;;;;;;;8.50;4.40;;;;;;;3.38;100.00;101742.97;5014426;28;20033;-60
2023/03/05 08:22:25;;;;;;;10.07;4.30;;;;;;;3.50;100.00;101741.38;5014931;28;20026;-57
2023/03/05 08:24:51;;;;;;;10.50;4.30;;;;;;;3.47;100.00;101736.34;5015281;28;20116;-58
2023/03/05 08:27:16;;;;;;;8.93;4.40;;;;;;;3.46;100.00;101734.66;5015649;28;20026;-59
2023/03/05 08:29:42;;;;;;;8.93;4.33;;;;;;;3.51;100.00;101735.25;5016604;28;20036;-61
2023/03/05 08:32:07;;;;;;;9.27;4.17;;;;;;;3.51;100.00;101732.63;5015273;28;20079;-59
2023/03/05 08:34:33;;;;;;;9.03;4.50;;;;;;;3.51;100.00;101732.63;5015766;28;20371;-61
2023/03/05 08:36:58;;;;;;;10.13;4.40;;;;;;;3.60;100.00;101734.66;5018470;28;20027;-58
2023/03/05 08:39:24;;;;;;;10.37;4.50;;;;;;;3.63;100.00;101724.00;5015825;28;20027;-60
2023/03/05 08:41:50;;;;;;;10.63;4.43;;;;;;;3.65;100.00;101723.06;5022940;28;20037;-58
2023/03/05 08:44:15;;;;;;;8.18;4.22;;;;;;;3.68;100.00;101720.22;5018868;28;20045;-58
2023/03/05 08:46:41;;;;;;;10.48;4.38;;;;;;;3.74;100.00;101718.06;5023943;28;20036;-58
2023/03/05 08:49:06;;;;;;;6.97;3.92;;;;;;;3.76;100.00;101707.50;5022242;28;20076;-59
2023/03/05 08:51:32;;;;;;;7.65;3.80;;;;;;;3.80;100.00;101708.16;5019084;28;20042;-58
2023/03/05 08:53:58;;;;;;;6.67;3.57;;;;;;;3.87;100.00;101712.91;5017578;28;20038;-58
2023/03/05 08:56:26;;;;;;;10.15;3.80;;;;;;;3.93;100.00;101710.81;5021937;28;20080;-58
2023/03/05 08:58:51;;;;;;;8.45;3.83;;;;;;;3.85;100.00;101704.28;5020361;28;20029;-57
2023/03/05 09:01:17;;;;;;;8.23;3.80;;;;;;;3.99;100.00;101700.78;5019821;28;20504;-58
2023/03/05 09:03:43;;;;;;;6.78;3.85;;;;;;;3.95;100.00;101695.84;5020023;28;20371;-58
2023/03/05 09:06:11;;;;;;;7.78;3.60;;;;;;;3.98;100.00;101698.25;5025706;28;20044;-58
2023/03/05 09:08:37;;;;;;;8.15;4.07;;;;;;;4.09;99.96;101695.81;5015709;28;20049;-58
2023/03/05 09:11:05;;;;;;;6.82;3.50;;;;;;;4.06;99.75;101697.78;5016941;28;20146;-58
2023/03/05 09:13:31;;;;;;;8.43;3.75;;;;;;;4.01;99.55;101691.03;5022517;28;20038;-58
2023/03/05 09:15:58;;;;;;;9.75;3.90;;;;;;;4.04;100.00;101687.38;5022447;28;20026;-57
2023/03/05 09:18:24;;;;;;;6.57;3.70;;;;;;;4.07;100.00;101686.34;5022403;28;20091;-58
2023/03/05 09:20:49;;;;;;;8.10;3.70;;;;;;;4.11;100.00;101683.44;5025701;28;20046;-57
2023/03/05 09:23:15;;;;;;;7.95;3.63;;;;;;;4.27;99.96;101687.69;5024355;28;20037;-57
2023/03/05 09:25:40;;;;;;;6.97;3.20;;;;;;;4.28;98.62;101679.72;5022879;28;20100;-58
2023/03/05 09:28:07;;;;;;;6.22;3.20;;;;;;;4.34;97.04;101686.34;5026070;28;20033;-58
2023/03/05 09:30:33;;;;;;;5.72;3.05;;;;;;;4.32;95.42;101675.09;5045057;28;20044;-59
2023/03/05 09:33:02;;;;;;;5.15;3.08;;;;;;;4.29;96.96;101670.03;5033696;28;20017;-58
2023/03/05 09:35:28;;;;;;;6.10;2.80;;;;;;;4.29;97.06;101680.53;5039771;28;20044;-61
2023/03/05 09:37:53;;;;;;;5.30;3.10;;;;;;;4.36;97.69;101666.09;5029558;28;20026;-62
2023/03/05 09:40:20;;;;;;;5.22;2.85;;;;;;;4.48;95.39;101674.13;5031820;28;20504;-62
2023/03/05 09:43:03;;;;;;;7.78;3.30;;;;;;;4.56;96.24;101666.56;5039969;28;20033;-62
2023/03/05 09:45:32;;;;;;;7.07;3.15;;;;;;;4.59;95.88;101668.97;5039631;28;20029;-62
2023/03/05 09:48:14;;;;;;;6.53;3.00;;;;;;;4.79;93.76;101672.06;5035765;28;20052;-62
2023/03/05 09:50:49;;;;;;;4.68;2.95;;;;;;;4.69;92.46;101656.09;5034861;28;20029;-64
2023/03/05 09:53:35;;;;;;;6.40;3.03;;;;;;;4.66;92.29;101667.66;5034067;28;20052;-61
2023/03/05 09:56:08;;;;;;;7.32;3.10;;;;;;;4.55;91.09;101662.25;5028255;28;20028;-62
2023/03/05 09:58:40;;;;;;;5.03;2.97;;;;;;;4.58;92.31;101652.38;5035957;28;20041;-62
2023/03/05 10:01:25;;;;;;;8.40;3.38;;;;;;;4.62;93.31;101660.91;5031391;28;20116;-62
2023/03/05 10:04:14;;;;;;;5.85;3.00;;;;;;;4.61;91.99;101659.22;5023051;28;20036;-62
2023/03/05 10:06:57;;;;;;;5.50;3.30;;;;;;;4.64;91.40;101651.13;5031582;28;20045;-62
2023/03/05 10:09:47;;;;;;;5.88;3.00;;;;;;;4.55;91.08;101659.63;5034174;28;20038;-62
2023/03/05 10:12:42;;;;;;;5.53;2.80;;;;;;;4.68;91.13;101655.25;5030306;28;20079;-62
2023/03/05 10:15:23;;;;;;;4.95;2.70;;;;;;;4.61;89.18;101651.34;5028003;28;20056;-63
2023/03/05 10:17:58;;;;;;;5.38;2.60;;;;;;;4.62;90.48;101650.41;5036628;28;20061;-62
2023/03/05 10:20:52;;;;;;;5.63;3.00;;;;;;;4.54;91.00;101642.19;5034152;28;20041;-62
2023/03/05 10:23:32;;;;;;;6.03;2.53;;;;;;;4.60;89.92;101641.78;5032423;28;20037;-58
2023/03/05 10:26:36;;;;;;;4.38;2.70;;;;;;;4.66;88.04;101637.88;5033963;28;20060;-58
2023/03/05 10:29:32;;;;;;;4.65;2.38;;;;;;;4.65;89.52;101634.44;5029495;28;20029;-58
2023/03/05 10:32:14;;;;;;;4.20;2.80;;;;;;;4.49;88.26;101628.53;5022657;28;20064;-58
2023/03/05 10:34:49;;;;;;;6.53;2.90;;;;;;;4.47;89.44;101635.63;5041313;28;20539;-59
2023/03/05 10:37:51;;;;;;;6.10;2.80;;;;;;;4.63;89.70;101625.78;5034267;28;20025;-58
2023/03/05 10:40:31;;;;;;;6.20;3.10;;;;;;;4.75;88.89;101624.16;5034426;28;20144;-58
2023/03/05 10:43:03;;;;;;;4.53;2.92;;;;;;;4.57;89.59;101627.06;5013958;28;20481;-58
2023/03/05 10:45:42;;;;;;;4.27;2.53;;;;;;;4.36;90.39;101639.84;5030862;28;20034;-58
2023/03/05 10:48:30;;;;;;;4.10;2.60;;;;;;;4.10;93.69;101636.28;5036512;28;20400;-57
2023/03/05 10:51:27;;;;;;;7.57;2.57;;;;;;;3.67;97.33;101631.97;5041911;28;20175;-58
2023/03/05 10:54:24;;;;;;;2.78;1.92;;;;;;;3.49;99.06;101609.44;5021869;28;20045;-58
2023/03/05 10:56:49;;;;;;;3.92;1.90;;;;;;;3.47;100.00;101615.72;5029703;28;20029;-57
2023/03/05 10:59:14;;;;;;;1.88;1.40;;;;;;;3.56;100.00;101612.50;5035266;28;20392;-58
2023/03/05 11:01:40;;;;;;;2.15;1.70;;;;;;;3.68;100.00;101602.19;5025026;28;20373;-57
2023/03/05 11:04:23;;;;;;;3.00;1.55;;;;;;;3.80;100.00;101606.66;5029758;28;20104;-58
2023/03/05 11:06:49;;;;;;;1.60;1.50;;;;;;;3.86;100.00;101595.75;5032378;28;20469;-57
2023/03/05 11:09:28;;;;;;;4.20;1.70;;;;;;;4.02;99.26;101600.03;5024863;28;20038;-58
2023/03/05 11:11:59;;;;;;;3.92;1.80;;;;;;;4.19;100.00;101591.03;5024947;28;20049;-57
2023/03/05 11:14:32;;;;;;;3.63;1.90;;;;;;;4.22;96.63;101588.22;5025638;28;20021;-58
2023/03/05 11:16:58;;;;;;;;;;;;;;;4.39;97.79;101587.09;5024414;28;20332;-58
2023/03/05 11:19:34;;;;;;;6.38;1.90;;;;;;;4.29;98.44;101576.38;5018815;28;19913;-58
2023/03/05 11:22:19;;;;;;;4.78;1.92;;;;;;;4.37;99.75;101578.50;5023938;28;20029;-58
2023/03/05 11:25:17;;;;;;;4.10;1.83;;;;;;;4.66;98.15;101575.69;5022042;28;20497;-58
2023/03/05 11:27:53;;;;;;;4.85;2.00;;;;;;;4.69;97.55;101577.28;5021906;28;20052;-58
2023/03/05 11:30:23;;;;;;;1.92;1.63;;;;;;;4.71;95.30;101570.97;5024507;28;20032;-58